sensor_id;sensor_type;location;lat;lon;timestamp;pressure;altitude;pressure_sealevel;temperature;humidity
53719;BME280;39616;48.872;9.390;2022-11-20T00:00:20;97844.34;;;3.56;100.00
53719;BME280;39616;48.872;9.390;2022-11-20T00:02:50;97845.41;;;3.50;100.00
53719;BME280;39616;48.872;9.390;2022-11-20T00:05:20;97845.94;;;3.52;100.00
53719;BME280;39616;48.872;9.390;2022-11-20T00:07:51;97849.72;;;3.56;100.00
53719;BME280;39616;48.872;9.390;2022-11-20T00:10:21;97845.41;;;3.50;100.00
53719;BME280;39616;48.872;9.390;2022-11-20T00:12:51;97841.66;;;3.51;100.00
53719;BME280;39616;48.872;9.390;2022-11-20T00:15:22;97843.00;;;3.54;100.00
53719;BME280;39616;48.872;9.390;2022-11-20T00:17:52;97846.50;;;3.54;100.00
53719;BME280;39616;48.872;9.390;2022-11-20T00:20:22;97843.78;;;3.44;100.00
53719;BME280;39616;48.872;9.390;2022-11-20T00:22:53;97851.03;;;3.49;100.00
53719;BME280;39616;48.872;9.390;2022-11-20T00:25:23;97842.47;;;3.52;100.00
53719;BME280;39616;48.872;9.390;2022-11-20T00:27:53;97844.59;;;3.50;100.00
53719;BME280;39616;48.872;9.390;2022-11-20T00:30:24;97844.06;;;3.53;100.00
53719;BME280;39616;48.872;9.390;2022-11-20T00:32:56;97847.25;;;3.50;100.00
53719;BME280;39616;48.872;9.390;2022-11-20T00:35:26;97840.06;;;3.50;100.00
53719;BME280;39616;48.872;9.390;2022-11-20T00:37:57;97845.13;;;3.52;100.00
53719;BME280;39616;48.872;9.390;2022-11-20T00:40:27;97837.59;;;3.44;100.00
53719;BME280;39616;48.872;9.390;2022-11-20T00:42:57;97835.44;;;3.46;100.00
53719;BME280;39616;48.872;9.390;2022-11-20T00:45:28;97844.31;;;3.46;100.00
53719;BME280;39616;48.872;9.390;2022-11-20T00:47:58;97845.13;;;3.47;100.00
53719;BME280;39616;48.872;9.390;2022-11-20T00:50:28;97845.69;;;3.54;100.00
53719;BME280;39616;48.872;9.390;2022-11-20T00:52:58;97842.75;;;3.60;100.00
53719;BME280;39616;48.872;9.390;2022-11-20T00:55:29;97842.22;;;3.58;100.00
53719;BME280;39616;48.872;9.390;2022-11-20T00:57:59;97845.19;;;3.62;100.00
53719;BME280;39616;48.872;9.390;2022-11-20T01:00:32;97848.16;;;3.66;100.00
53719;BME280;39616;48.872;9.390;2022-11-20T01:03:02;97844.63;;;3.55;100.00
53719;BME280;39616;48.872;9.390;2022-11-20T01:05:34;97843.28;;;3.57;100.00
53719;BME280;39616;48.872;9.390;2022-11-20T01:08:05;97852.16;;;3.63;100.00
53719;BME280;39616;48.872;9.390;2022-11-20T01:10:35;97858.03;;;3.60;100.00
53719;BME280;39616;48.872;9.390;2022-11-20T01:13:06;97857.47;;;3.53;100.00
53719;BME280;39616;48.872;9.390;2022-11-20T01:15:55;97856.94;;;3.56;100.00
53719;BME280;39616;48.872;9.390;2022-11-20T01:18:25;97856.16;;;3.55;100.00
53719;BME280;39616;48.872;9.390;2022-11-20T01:21:00;97856.91;;;3.46;100.00
53719;BME280;39616;48.872;9.390;2022-11-20T01:23:35;97862.03;;;3.52;100.00
53719;BME280;39616;48.872;9.390;2022-11-20T01:26:08;97860.94;;;3.48;100.00
53719;BME280;39616;48.872;9.390;2022-11-20T01:28:40;97865.50;;;3.48;100.00
53719;BME280;39616;48.872;9.390;2022-11-20T01:31:12;97864.41;;;3.44;100.00
53719;BME280;39616;48.872;9.390;2022-11-20T01:33:44;97864.66;;;3.42;100.00
53719;BME280;39616;48.872;9.390;2022-11-20T01:36:15;97869.78;;;3.44;100.00
53719;BME280;39616;48.872;9.390;2022-11-20T01:38:46;97866.81;;;3.45;100.00
53719;BME280;39616;48.872;9.390;2022-11-20T01:41:17;97867.91;;;3.49;100.00
53719;BME280;39616;48.872;9.390;2022-11-20T01:44:06;97859.34;;;3.52;100.00
53719;BME280;39616;48.872;9.390;2022-11-20T01:46:38;97863.13;;;3.56;100.00
53719;BME280;39616;48.872;9.390;2022-11-20T01:49:18;97864.47;;;3.59;100.00
53719;BME280;39616;48.872;9.390;2022-11-20T01:52:14;97855.91;;;3.62;100.00
53719;BME280;39616;48.872;9.390;2022-11-20T01:54:49;97855.91;;;3.67;100.00
53719;BME280;39616;48.872;9.390;2022-11-20T01:57:22;97851.41;;;3.73;100.00
53719;BME280;39616;48.872;9.390;2022-11-20T02:00:03;97849.75;;;3.67;100.00
53719;BME280;39616;48.872;9.390;2022-11-20T02:02:35;97846.00;;;3.68;100.00
53719;BME280;39616;48.872;9.390;2022-11-20T02:05:14;97847.88;;;3.62;100.00
53719;BME280;39616;48.872;9.390;2022-11-20T02:07:47;97846.00;;;3.62;100.00
53719;BME280;39616;48.872;9.390;2022-11-20T02:10:18;97850.81;;;3.66;100.00
53719;BME280;39616;48.872;9.390;2022-11-20T02:12:48;97840.09;;;3.66;100.00
53719;BME280;39616;48.872;9.390;2022-11-20T02:15:54;97842.28;;;3.74;100.00
53719;BME280;39616;48.872;9.390;2022-11-20T02:18:25;97847.34;;;3.75;100.00
53719;BME280;39616;48.872;9.390;2022-11-20T02:21:03;97852.22;;;3.83;100.00
53719;BME280;39616;48.872;9.390;2022-11-20T02:29:31;97849.56;;;3.94;100.00
53719;BME280;39616;48.872;9.390;2022-11-20T02:32:03;97849.03;;;3.97;100.00
53719;BME280;39616;48.872;9.390;2022-11-20T02:34:33;97841.53;;;3.99;100.00
53719;BME280;39616;48.872;9.390;2022-11-20T02:37:03;97836.97;;;4.04;100.00
53719;BME280;39616;48.872;9.390;2022-11-20T02:39:34;97843.69;;;4.07;100.00
53719;BME280;39616;48.872;9.390;2022-11-20T02:42:04;97849.06;;;4.07;100.00
53719;BME280;39616;48.872;9.390;2022-11-20T02:44:34;97848.25;;;4.11;100.00
53719;BME280;39616;48.872;9.390;2022-11-20T02:47:05;97849.31;;;4.16;100.00
53719;BME280;39616;48.872;9.390;2022-11-20T02:49:35;97843.44;;;4.19;100.00
53719;BME280;39616;48.872;9.390;2022-11-20T02:52:05;97850.16;;;4.21;100.00
53719;BME280;39616;48.872;9.390;2022-11-20T02:54:36;97844.00;;;4.21;100.00
53719;BME280;39616;48.872;9.390;2022-11-20T02:57:06;97845.59;;;4.22;100.00
53719;BME280;39616;48.872;9.390;2022-11-20T02:59:37;97842.38;;;4.25;100.00
53719;BME280;39616;48.872;9.390;2022-11-20T03:02:07;97851.22;;;4.25;100.00
53719;BME280;39616;48.872;9.390;2022-11-20T03:04:37;97858.19;;;4.26;100.00
53719;BME280;39616;48.872;9.390;2022-11-20T03:07:09;97852.06;;;4.31;100.00
53719;BME280;39616;48.872;9.390;2022-11-20T03:09:39;97846.41;;;4.32;100.00
53719;BME280;39616;48.872;9.390;2022-11-20T03:12:10;97846.94;;;4.29;100.00
53719;BME280;39616;48.872;9.390;2022-11-20T03:14:40;97850.41;;;4.30;100.00
53719;BME280;39616;48.872;9.390;2022-11-20T03:17:10;97842.38;;;4.30;100.00
53719;BME280;39616;48.872;9.390;2022-11-20T03:19:41;97840.25;;;4.32;100.00
53719;BME280;39616;48.872;9.390;2022-11-20T03:22:11;97837.28;;;4.28;100.00
53719;BME280;39616;48.872;9.390;2022-11-20T03:24:41;97841.03;;;4.27;100.00
53719;BME280;39616;48.872;9.390;2022-11-20T03:27:12;97838.63;;;4.26;100.00
53719;BME280;39616;48.872;9.390;2022-11-20T03:29:42;97839.41;;;4.26;100.00
53719;BME280;39616;48.872;9.390;2022-11-20T03:32:12;97836.47;;;4.28;100.00
53719;BME280;39616;48.872;9.390;2022-11-20T03:34:43;97831.91;;;4.33;100.00
53719;BME280;39616;48.872;9.390;2022-11-20T03:37:13;97833.78;;;4.33;100.00
53719;BME280;39616;48.872;9.390;2022-11-20T03:39:43;97839.16;;;4.33;100.00
53719;BME280;39616;48.872;9.390;2022-11-20T03:42:14;97840.75;;;4.34;100.00
53719;BME280;39616;48.872;9.390;2022-11-20T03:45:03;97837.81;;;4.35;100.00
53719;BME280;39616;48.872;9.390;2022-11-20T03:47:34;97838.63;;;4.31;100.00
53719;BME280;39616;48.872;9.390;2022-11-20T03:50:05;97828.41;;;4.33;100.00
53719;BME280;39616;48.872;9.390;2022-11-20T03:52:35;97826.81;;;4.32;100.00
53719;BME280;39616;48.872;9.390;2022-11-20T03:55:06;97826.00;;;4.31;100.00
53719;BME280;39616;48.872;9.390;2022-11-20T03:57:36;97830.31;;;4.32;100.00
53719;BME280;39616;48.872;9.390;2022-11-20T04:00:07;97823.59;;;4.35;100.00
53719;BME280;39616;48.872;9.390;2022-11-20T04:02:37;97830.03;;;4.34;100.00
53719;BME280;39616;48.872;9.390;2022-11-20T04:05:08;97831.66;;;4.35;100.00
53719;BME280;39616;48.872;9.390;2022-11-20T04:07:38;97830.31;;;4.32;100.00
53719;BME280;39616;48.872;9.390;2022-11-20T04:10:08;97831.66;;;4.35;100.00
53719;BME280;39616;48.872;9.390;2022-11-20T04:12:39;97834.84;;;4.37;100.00
53719;BME280;39616;48.872;9.390;2022-11-20T04:15:09;97831.66;;;4.35;100.00
53719;BME280;39616;48.872;9.390;2022-11-20T04:17:39;97826.81;;;4.37;100.00
53719;BME280;39616;48.872;9.390;2022-11-20T04:20:10;97827.63;;;4.43;100.00
53719;BME280;39616;48.872;9.390;2022-11-20T04:22:40;97835.13;;;4.41;100.00
53719;BME280;39616;48.872;9.390;2022-11-20T04:25:10;97826.25;;;4.45;100.00
53719;BME280;39616;48.872;9.390;2022-11-20T04:27:41;97830.84;;;4.45;100.00
53719;BME280;39616;48.872;9.390;2022-11-20T04:30:11;97821.47;;;4.42;100.00
53719;BME280;39616;48.872;9.390;2022-11-20T04:32:42;97815.00;;;4.43;100.00
53719;BME280;39616;48.872;9.390;2022-11-20T04:35:12;97812.59;;;4.47;100.00
53719;BME280;39616;48.872;9.390;2022-11-20T04:37:42;97819.03;;;4.46;100.00
53719;BME280;39616;48.872;9.390;2022-11-20T04:40:13;97822.53;;;4.46;100.00
53719;BME280;39616;48.872;9.390;2022-11-20T04:42:43;97823.06;;;4.43;100.00
53719;BME280;39616;48.872;9.390;2022-11-20T04:45:13;97821.72;;;4.46;100.00
53719;BME280;39616;48.872;9.390;2022-11-20T04:47:43;97818.47;;;4.49;100.00
53719;BME280;39616;48.872;9.390;2022-11-20T04:50:14;97822.00;;;4.49;100.00
53719;BME280;39616;48.872;9.390;2022-11-20T04:52:44;97822.53;;;4.46;100.00
53719;BME280;39616;48.872;9.390;2022-11-20T04:55:15;97823.03;;;4.48;100.00
53719;BME280;39616;48.872;9.390;2022-11-20T04:57:45;97823.03;;;4.48;100.00
53719;BME280;39616;48.872;9.390;2022-11-20T05:00:19;97828.69;;;4.47;100.00
53719;BME280;39616;48.872;9.390;2022-11-20T05:02:49;97824.13;;;4.52;100.00
53719;BME280;39616;48.872;9.390;2022-11-20T05:05:20;97822.78;;;4.50;100.00
53719;BME280;39616;48.872;9.390;2022-11-20T05:07:50;97819.03;;;4.46;100.00
53719;BME280;39616;48.872;9.390;2022-11-20T05:10:20;97812.03;;;4.45;100.00
53719;BME280;39616;48.872;9.390;2022-11-20T05:12:51;97819.56;;;4.48;100.00
53719;BME280;39616;48.872;9.390;2022-11-20T05:15:21;97813.38;;;4.47;100.00
53719;BME280;39616;48.872;9.390;2022-11-20T05:17:52;97820.38;;;4.48;100.00
53719;BME280;39616;48.872;9.390;2022-11-20T05:20:22;97816.59;;;4.44;100.00
53719;BME280;39616;48.872;9.390;2022-11-20T05:22:56;97818.50;;;4.44;100.00
53719;BME280;39616;48.872;9.390;2022-11-20T05:25:26;97823.06;;;4.43;100.00
53719;BME280;39616;48.872;9.390;2022-11-20T05:27:57;97824.41;;;4.46;100.00
53719;BME280;39616;48.872;9.390;2022-11-20T05:30:27;97828.44;;;4.43;100.00
53719;BME280;39616;48.872;9.390;2022-11-20T05:33:00;97827.34;;;4.44;100.00
53719;BME280;39616;48.872;9.390;2022-11-20T05:35:30;97829.50;;;4.42;100.00
53719;BME280;39616;48.872;9.390;2022-11-20T05:38:00;97827.06;;;4.41;100.00
53719;BME280;39616;48.872;9.390;2022-11-20T05:40:31;97822.25;;;4.43;100.00
53719;BME280;39616;48.872;9.390;2022-11-20T05:43:01;97820.91;;;4.40;100.00
53719;BME280;39616;48.872;9.390;2022-11-20T05:45:31;97816.59;;;4.44;100.00
53719;BME280;39616;48.872;9.390;2022-11-20T05:48:02;97820.63;;;4.42;100.00
53719;BME280;39616;48.872;9.390;2022-11-20T05:50:32;97820.91;;;4.45;100.00
53719;BME280;39616;48.872;9.390;2022-11-20T05:53:03;97824.41;;;4.51;100.00
53719;BME280;39616;48.872;9.390;2022-11-20T05:55:33;97817.16;;;4.46;100.00
53719;BME280;39616;48.872;9.390;2022-11-20T05:58:03;97811.25;;;4.49;100.00
53719;BME280;39616;48.872;9.390;2022-11-20T06:00:34;97817.97;;;4.47;100.00
53719;BME280;39616;48.872;9.390;2022-11-20T06:03:04;97811.78;;;4.46;100.00
53719;BME280;39616;48.872;9.390;2022-11-20T06:05:34;97812.31;;;4.43;100.00
53719;BME280;39616;48.872;9.390;2022-11-20T06:08:04;97820.38;;;4.43;100.00
53719;BME280;39616;48.872;9.390;2022-11-20T06:10:35;97812.31;;;4.48;100.00
53719;BME280;39616;48.872;9.390;2022-11-20T06:13:05;97811.78;;;4.46;100.00
53719;BME280;39616;48.872;9.390;2022-11-20T06:15:35;97810.16;;;4.45;100.00
53719;BME280;39616;48.872;9.390;2022-11-20T06:18:06;97811.53;;;4.53;100.00
53719;BME280;39616;48.872;9.390;2022-11-20T06:20:36;97813.38;;;4.52;100.00
53719;BME280;39616;48.872;9.390;2022-11-20T06:23:06;97800.22;;;4.56;100.00
53719;BME280;39616;48.872;9.390;2022-11-20T06:25:41;97805.59;;;4.51;100.00
53719;BME280;39616;48.872;9.390;2022-11-20T06:28:11;97802.66;;;4.47;100.00
53719;BME280;39616;48.872;9.390;2022-11-20T06:30:44;97805.88;;;4.49;100.00
53719;BME280;39616;48.872;9.390;2022-11-20T06:33:18;97805.06;;;4.54;100.00
53719;BME280;39616;48.872;9.390;2022-11-20T06:35:48;97810.16;;;4.55;100.00
53719;BME280;39616;48.872;9.390;2022-11-20T06:38:19;97808.03;;;4.57;100.00
53719;BME280;39616;48.872;9.390;2022-11-20T06:40:51;97807.50;;;4.60;100.00
53719;BME280;39616;48.872;9.390;2022-11-20T06:43:24;97803.72;;;4.62;100.00
53719;BME280;39616;48.872;9.390;2022-11-20T06:45:55;97806.38;;;4.56;100.00
53719;BME280;39616;48.872;9.390;2022-11-20T06:48:27;97811.50;;;4.58;100.00
53719;BME280;39616;48.872;9.390;2022-11-20T06:50:58;97823.59;;;4.60;100.00
53719;BME280;39616;48.872;9.390;2022-11-20T06:53:28;97824.94;;;4.58;100.00
53719;BME280;39616;48.872;9.390;2022-11-20T06:55:58;97819.84;;;4.62;100.00
53719;BME280;39616;48.872;9.390;2022-11-20T06:58:30;97819.84;;;4.62;100.00
53719;BME280;39616;48.872;9.390;2022-11-20T07:01:07;97819.56;;;4.63;100.00
53719;BME280;39616;48.872;9.390;2022-11-20T07:03:39;97817.66;;;4.64;100.00
53719;BME280;39616;48.872;9.390;2022-11-20T07:06:10;97809.34;;;4.65;100.00
53719;BME280;39616;48.872;9.390;2022-11-20T07:08:40;97818.50;;;4.64;100.00
53719;BME280;39616;48.872;9.390;2022-11-20T07:11:11;97816.06;;;4.68;100.00
53719;BME280;39616;48.872;9.390;2022-11-20T07:13:43;97816.06;;;4.68;100.00
53719;BME280;39616;48.872;9.390;2022-11-20T07:16:14;97814.72;;;4.70;100.00
53719;BME280;39616;48.872;9.390;2022-11-20T07:18:47;97815.78;;;4.74;100.00
53719;BME280;39616;48.872;9.390;2022-11-20T07:21:18;97820.09;;;4.70;100.00
53719;BME280;39616;48.872;9.390;2022-11-20T07:23:48;97823.31;;;4.72;100.00
53719;BME280;39616;48.872;9.390;2022-11-20T07:26:18;97818.22;;;4.76;100.00
53719;BME280;39616;48.872;9.390;2022-11-20T07:28:49;97826.50;;;4.84;100.00
53719;BME280;39616;48.872;9.390;2022-11-20T07:31:19;97826.25;;;4.86;100.00
53719;BME280;39616;48.872;9.390;2022-11-20T07:33:50;97826.25;;;4.91;100.00
53719;BME280;39616;48.872;9.390;2022-11-20T07:36:20;97829.44;;;4.93;100.00
53719;BME280;39616;48.872;9.390;2022-11-20T07:38:50;97828.38;;;5.04;100.00
53719;BME280;39616;48.872;9.390;2022-11-20T07:41:21;97832.38;;;5.07;100.00
53719;BME280;39616;48.872;9.390;2022-11-20T07:43:51;97832.13;;;5.08;100.00
53719;BME280;39616;48.872;9.390;2022-11-20T07:46:21;97840.44;;;5.12;100.00
53719;BME280;39616;48.872;9.390;2022-11-20T07:48:52;97834.50;;;5.15;100.00
53719;BME280;39616;48.872;9.390;2022-11-20T07:51:22;97844.16;;;5.21;100.00
53719;BME280;39616;48.872;9.390;2022-11-20T07:53:52;97842.53;;;5.25;100.00
53719;BME280;39616;48.872;9.390;2022-11-20T07:56:23;97830.72;;;5.31;100.00
53719;BME280;39616;48.872;9.390;2022-11-20T07:58:53;97839.31;;;5.28;100.00
53719;BME280;39616;48.872;9.390;2022-11-20T08:01:24;97841.47;;;5.26;100.00
53719;BME280;39616;48.872;9.390;2022-11-20T08:03:54;97845.50;;;5.19;100.00
53719;BME280;39616;48.872;9.390;2022-11-20T08:06:24;97846.09;;;5.16;100.00
53719;BME280;39616;48.872;9.390;2022-11-20T08:08:55;97846.63;;;5.13;100.00
53719;BME280;39616;48.872;9.390;2022-11-20T08:11:25;97846.63;;;5.07;100.00
53719;BME280;39616;48.872;9.390;2022-11-20T08:14:14;97849.31;;;5.13;100.00
53719;BME280;39616;48.872;9.390;2022-11-20T08:16:47;97850.09;;;5.08;100.00
53719;BME280;39616;48.872;9.390;2022-11-20T08:19:18;97856.31;;;5.03;100.00
53719;BME280;39616;48.872;9.390;2022-11-20T08:21:48;97849.88;;;5.04;100.00
53719;BME280;39616;48.872;9.390;2022-11-20T08:24:19;97845.00;;;5.06;100.00
53719;BME280;39616;48.872;9.390;2022-11-20T08:26:49;97853.38;;;5.05;100.00
53719;BME280;39616;48.872;9.390;2022-11-20T08:29:20;97847.19;;;5.04;100.00
53719;BME280;39616;48.872;9.390;2022-11-20T08:31:50;97851.47;;;5.05;100.00
53719;BME280;39616;48.872;9.390;2022-11-20T08:34:20;97852.56;;;5.04;100.00
53719;BME280;39616;48.872;9.390;2022-11-20T08:36:51;97855.75;;;5.12;100.00
53719;BME280;39616;48.872;9.390;2022-11-20T08:39:22;97862.47;;;5.19;100.00
53719;BME280;39616;48.872;9.390;2022-11-20T08:41:52;97852.78;;;5.23;100.00
53719;BME280;39616;48.872;9.390;2022-11-20T08:44:23;97853.56;;;5.29;100.00
53719;BME280;39616;48.872;9.390;2022-11-20T08:46:53;97854.06;;;5.36;100.00
53719;BME280;39616;48.872;9.390;2022-11-20T08:49:23;97852.44;;;5.40;100.00
53719;BME280;39616;48.872;9.390;2022-11-20T08:51:53;97855.69;;;5.42;100.00
53719;BME280;39616;48.872;9.390;2022-11-20T08:54:25;97861.03;;;5.47;100.00
53719;BME280;39616;48.872;9.390;2022-11-20T08:56:55;97865.03;;;5.55;100.00
53719;BME280;39616;48.872;9.390;2022-11-20T08:59:26;97861.78;;;5.63;100.00
53719;BME280;39616;48.872;9.390;2022-11-20T09:01:56;97853.44;;;5.60;100.00
53719;BME280;39616;48.872;9.390;2022-11-20T09:04:26;97857.81;;;5.50;100.00
53719;BME280;39616;48.872;9.390;2022-11-20T09:06:56;97856.75;;;5.46;100.00
53719;BME280;39616;48.872;9.390;2022-11-20T09:09:27;97853.00;;;5.42;100.00
53719;BME280;39616;48.872;9.390;2022-11-20T09:11:57;97863.19;;;5.40;100.00
53719;BME280;39616;48.872;9.390;2022-11-20T09:14:27;97854.59;;;5.43;100.00
53719;BME280;39616;48.872;9.390;2022-11-20T09:17:00;97858.63;;;5.41;100.00
53719;BME280;39616;48.872;9.390;2022-11-20T09:19:30;97865.09;;;5.40;100.00
53719;BME280;39616;48.872;9.390;2022-11-20T09:22:00;97868.28;;;5.47;100.00
53719;BME280;39616;48.872;9.390;2022-11-20T09:24:31;97866.16;;;5.49;100.00
53719;BME280;39616;48.872;9.390;2022-11-20T09:27:03;97870.19;;;5.46;100.00
53719;BME280;39616;48.872;9.390;2022-11-20T09:29:34;97877.72;;;5.49;100.00
53719;BME280;39616;48.872;9.390;2022-11-20T09:32:04;97878.25;;;5.46;100.00
53719;BME280;39616;48.872;9.390;2022-11-20T09:34:35;97883.34;;;5.53;100.00
53719;BME280;39616;48.872;9.390;2022-11-20T09:37:05;97878.22;;;5.56;100.00
53719;BME280;39616;48.872;9.390;2022-11-20T09:39:35;97878.19;;;5.62;100.00
53719;BME280;39616;48.872;9.390;2022-11-20T09:42:27;97881.69;;;5.62;100.00
53719;BME280;39616;48.872;9.390;2022-11-20T09:45:09;97885.72;;;5.65;100.00
53719;BME280;39616;48.872;9.390;2022-11-20T09:48:18;97872.78;;;5.67;100.00
53719;BME280;39616;48.872;9.390;2022-11-20T09:51:11;97877.38;;;5.71;100.00
53719;BME280;39616;48.872;9.390;2022-11-20T09:54:08;97879.50;;;5.74;100.00
53719;BME280;39616;48.872;9.390;2022-11-20T09:56:45;97881.63;;;5.77;100.00
53719;BME280;39616;48.872;9.390;2022-11-20T09:59:34;97888.06;;;5.81;100.00
53719;BME280;39616;48.872;9.390;2022-11-20T10:02:18;97893.16;;;5.93;100.00
53719;BME280;39616;48.872;9.390;2022-11-20T10:07:43;97891.50;;;6.08;100.00
53719;BME280;39616;48.872;9.390;2022-11-20T10:10:21;97882.59;;;6.07;100.00
53719;BME280;39616;48.872;9.390;2022-11-20T10:13:23;97886.66;;;6.04;100.00
53719;BME280;39616;48.872;9.390;2022-11-20T10:27:44;97886.56;;;6.20;100.00
53719;BME280;39616;48.872;9.390;2022-11-20T10:30:20;97893.84;;;6.19;100.00
53719;BME280;39616;48.872;9.390;2022-11-20T10:32:54;97881.78;;;6.12;100.00
53719;BME280;39616;48.872;9.390;2022-11-20T10:35:34;97893.91;;;6.09;100.00
53719;BME280;39616;48.872;9.390;2022-11-20T10:38:14;97893.63;;;6.05;100.00
53719;BME280;39616;48.872;9.390;2022-11-20T10:40:59;97898.47;;;6.03;100.00
53719;BME280;39616;48.872;9.390;2022-11-20T10:44:17;97889.59;;;6.08;100.00
53719;BME280;39616;48.872;9.390;2022-11-20T10:47:17;97896.88;;;6.02;100.00
53719;BME280;39616;48.872;9.390;2022-11-20T10:49:51;97898.22;;;6.05;100.00
53719;BME280;39616;48.872;9.390;2022-11-20T10:52:55;97897.69;;;6.03;100.00
53719;BME280;39616;48.872;9.390;2022-11-20T10:55:36;97897.34;;;6.15;100.00
53719;BME280;39616;48.872;9.390;2022-11-20T11:01:19;97891.66;;;6.26;100.00
53719;BME280;39616;48.872;9.390;2022-11-20T11:03:55;97888.72;;;6.18;100.00
53719;BME280;39616;48.872;9.390;2022-11-20T11:06:33;97876.63;;;6.15;100.00
53719;BME280;39616;48.872;9.390;2022-11-20T11:09:19;97886.06;;;6.13;100.00
53719;BME280;39616;48.872;9.390;2022-11-20T11:11:51;97888.03;;;5.97;100.00
53719;BME280;39616;48.872;9.390;2022-11-20T11:14:22;97889.84;;;6.07;100.00
53719;BME280;39616;48.872;9.390;2022-11-20T11:16:56;97887.16;;;6.07;100.00
53719;BME280;39616;48.872;9.390;2022-11-20T11:19:27;97888.03;;;5.97;100.00
53719;BME280;39616;48.872;9.390;2022-11-20T11:21:57;97878.06;;;5.97;100.00
53719;BME280;39616;48.872;9.390;2022-11-20T11:24:29;97857.06;;;5.99;100.00
53719;BME280;39616;48.872;9.390;2022-11-20T11:27:02;97866.78;;;5.95;100.00
53719;BME280;39616;48.872;9.390;2022-11-20T11:29:34;97863.78;;;5.92;100.00
53719;BME280;39616;48.872;9.390;2022-11-20T11:32:08;97855.75;;;5.97;100.00
53719;BME280;39616;48.872;9.390;2022-11-20T11:34:41;97852.75;;;5.98;100.00
53719;BME280;39616;48.872;9.390;2022-11-20T11:37:20;97848.88;;;6.15;100.00
53719;BME280;39616;48.872;9.390;2022-11-20T11:39:54;97850.41;;;6.31;100.00
53719;BME280;39616;48.872;9.390;2022-11-20T11:42:24;97849.25;;;6.42;100.00
53719;BME280;39616;48.872;9.390;2022-11-20T11:44:56;97846.75;;;6.51;100.00
53719;BME280;39616;48.872;9.390;2022-11-20T11:50:27;97840.75;;;6.93;100.00
53719;BME280;39616;48.872;9.390;2022-11-20T11:53:14;97835.44;;;7.36;100.00
53719;BME280;39616;48.872;9.390;2022-11-20T11:55:56;97831.84;;;7.65;100.00
53719;BME280;39616;48.872;9.390;2022-11-20T12:01:17;97826.44;;;8.08;100.00
53719;BME280;39616;48.872;9.390;2022-11-20T12:04:33;97823.53;;;8.04;100.00
53719;BME280;39616;48.872;9.390;2022-11-20T12:07:26;97819.56;;;7.96;100.00
53719;BME280;39616;48.872;9.390;2022-11-20T12:10:03;97821.69;;;7.81;96.76
53719;BME280;39616;48.872;9.390;2022-11-20T12:12:37;97811.59;;;7.67;95.34
53719;BME280;39616;48.872;9.390;2022-11-20T12:15:13;97820.81;;;7.42;96.42
53719;BME280;39616;48.872;9.390;2022-11-20T12:17:46;97821.41;;;7.58;98.81
53719;BME280;39616;48.872;9.390;2022-11-20T12:20:16;97825.63;;;7.45;98.14
53719;BME280;39616;48.872;9.390;2022-11-20T12:22:59;97822.25;;;7.35;100.00
53719;BME280;39616;48.872;9.390;2022-11-20T12:25:35;97810.00;;;7.42;99.35
53719;BME280;39616;48.872;9.390;2022-11-20T12:28:18;97806.22;;;7.43;99.42
53719;BME280;39616;48.872;9.390;2022-11-20T12:31:03;97811.50;;;7.54;98.53
53719;BME280;39616;48.872;9.390;2022-11-20T12:36:52;97805.63;;;7.89;94.66
53719;BME280;39616;48.872;9.390;2022-11-20T12:39:33;97794.69;;;7.99;89.79
53719;BME280;39616;48.872;9.390;2022-11-20T12:42:17;97801.03;;;7.90;87.58
53719;BME280;39616;48.872;9.390;2022-11-20T12:48:14;97797.09;;;7.82;86.76
53719;BME280;39616;48.872;9.390;2022-11-20T12:57:24;97802.00;;;8.18;86.63
53719;BME280;39616;48.872;9.390;2022-11-20T13:00:01;97800.09;;;8.37;85.31
53719;BME280;39616;48.872;9.390;2022-11-20T13:05:43;97788.19;;;8.71;79.14
53719;BME280;39616;48.872;9.390;2022-11-20T13:08:25;97789.34;;;8.65;77.38
53719;BME280;39616;48.872;9.390;2022-11-20T13:16:48;97808.63;;;8.26;75.21
53719;BME280;39616;48.872;9.390;2022-11-20T13:19:20;97806.56;;;7.98;74.61
53719;BME280;39616;48.872;9.390;2022-11-20T13:21:51;97805.09;;;7.87;74.87
53719;BME280;39616;48.872;9.390;2022-11-20T13:24:27;97804.84;;;7.89;76.76
53719;BME280;39616;48.872;9.390;2022-11-20T13:29:44;97802.03;;;7.75;75.02
53719;BME280;39616;48.872;9.390;2022-11-20T13:32:20;97808.66;;;7.64;75.07
53719;BME280;39616;48.872;9.390;2022-11-20T13:34:56;97798.91;;;7.68;75.95
53719;BME280;39616;48.872;9.390;2022-11-20T13:37:33;97793.84;;;7.61;77.21
53719;BME280;39616;48.872;9.390;2022-11-20T13:42:45;97786.25;;;7.44;78.02
53719;BME280;39616;48.872;9.390;2022-11-20T13:45:31;97779.63;;;7.37;77.10
53719;BME280;39616;48.872;9.390;2022-11-20T13:48:04;97790.44;;;7.56;78.62
53719;BME280;39616;48.872;9.390;2022-11-20T13:50:56;97774.13;;;7.66;79.32
53719;BME280;39616;48.872;9.390;2022-11-20T13:56:40;97774.19;;;7.80;76.20
53719;BME280;39616;48.872;9.390;2022-11-20T13:59:40;97767.53;;;7.72;75.80
53719;BME280;39616;48.872;9.390;2022-11-20T14:02:15;97773.72;;;7.54;74.52
53719;BME280;39616;48.872;9.390;2022-11-20T14:04:49;97768.41;;;7.48;75.08
53719;BME280;39616;48.872;9.390;2022-11-20T14:07:24;97764.28;;;7.32;75.72
53719;BME280;39616;48.872;9.390;2022-11-20T14:09:57;97769.22;;;7.25;77.25
53719;BME280;39616;48.872;9.390;2022-11-20T14:12:32;97770.53;;;7.28;79.05
53719;BME280;39616;48.872;9.390;2022-11-20T14:15:03;97768.72;;;7.23;76.33
53719;BME280;39616;48.872;9.390;2022-11-20T14:17:35;97772.44;;;7.27;76.05
53719;BME280;39616;48.872;9.390;2022-11-20T14:20:12;97768.72;;;7.23;74.12
53719;BME280;39616;48.872;9.390;2022-11-20T14:22:48;97769.09;;;7.35;74.96
53719;BME280;39616;48.872;9.390;2022-11-20T14:25:22;97772.81;;;7.39;76.14
53719;BME280;39616;48.872;9.390;2022-11-20T14:27:55;97773.13;;;7.38;76.13
53719;BME280;39616;48.872;9.390;2022-11-20T14:30:28;97771.78;;;7.35;76.29
53719;BME280;39616;48.872;9.390;2022-11-20T14:33:02;97776.81;;;7.23;75.03
53719;BME280;39616;48.872;9.390;2022-11-20T14:35:48;97765.78;;;7.19;75.94